createdAt,value
2022-11-30T00:00:46.273Z,10.57
2022-11-30T00:06:23.545Z,11.18
2022-11-30T00:11:54.831Z,9.63
2022-11-30T00:17:26.104Z,9.63
2022-11-30T00:22:57.879Z,9.70
2022-11-30T00:28:30.391Z,10.30
2022-11-30T00:34:01.567Z,9.98
2022-11-30T00:39:35.659Z,9.98
2022-11-30T00:45:07.731Z,10.25
2022-11-30T00:50:39.110Z,9.80
2022-11-30T00:56:11.369Z,9.50
2022-11-30T01:01:42.651Z,9.98
2022-11-30T01:07:13.822Z,8.35
2022-11-30T01:12:45.246Z,9.55
2022-11-30T01:18:16.639Z,9.35
2022-11-30T01:23:48.651Z,9.75
2022-11-30T01:29:19.717Z,9.25
2022-11-30T01:34:50.931Z,8.65
2022-11-30T01:40:22.337Z,9.90
2022-11-30T01:45:53.859Z,9.45
2022-11-30T01:51:28.139Z,9.52
2022-11-30T01:57:21.574Z,9.52
2022-11-30T02:03:24.881Z,9.38
2022-11-30T02:08:56.046Z,7.97
2022-11-30T02:15:03.796Z,8.88
2022-11-30T02:20:44.095Z,8.25
2022-11-30T02:26:23.190Z,8.30
2022-11-30T02:32:16.433Z,9.35
2022-11-30T02:37:49.339Z,9.43
2022-11-30T02:43:22.898Z,8.18
2022-11-30T02:49:02.566Z,8.45
2022-11-30T02:54:34.604Z,9.20
2022-11-30T03:00:08.019Z,8.57
2022-11-30T03:05:39.114Z,8.73
2022-11-30T03:11:10.483Z,8.02
2022-11-30T03:16:41.590Z,9.15
2022-11-30T03:22:12.740Z,8.63
2022-11-30T03:27:43.888Z,9.00
2022-11-30T03:33:14.792Z,7.80
2022-11-30T03:38:47.777Z,8.38
2022-11-30T03:44:19.815Z,9.40
2022-11-30T03:49:51.013Z,8.10
2022-11-30T03:55:22.082Z,8.15
2022-11-30T04:01:06.401Z,8.15
2022-11-30T04:12:08.711Z,8.02
2022-11-30T04:17:39.937Z,7.97
2022-11-30T04:23:11.840Z,9.00
2022-11-30T04:28:43.055Z,8.07
2022-11-30T04:34:14.315Z,8.30
2022-11-30T04:39:45.654Z,8.27
2022-11-30T04:45:16.755Z,8.65
2022-11-30T04:50:47.647Z,8.10
2022-11-30T04:56:18.978Z,9.45
2022-11-30T05:01:50.317Z,7.55
2022-11-30T05:07:21.740Z,8.20
2022-11-30T05:12:53.243Z,8.13
2022-11-30T05:18:24.278Z,8.60
2022-11-30T05:23:55.761Z,8.35
2022-11-30T05:29:27.372Z,8.88
2022-11-30T05:35:00.402Z,8.15
2022-11-30T05:40:33.829Z,8.82
2022-11-30T05:46:06.808Z,8.73
2022-11-30T05:51:40.142Z,8.43
2022-11-30T05:57:11.586Z,8.82
2022-11-30T06:02:42.815Z,8.70
2022-11-30T06:08:13.908Z,9.00
2022-11-30T06:13:45.302Z,9.00
2022-11-30T06:19:16.218Z,8.45
2022-11-30T06:24:47.685Z,8.20
2022-11-30T06:30:19.159Z,8.65
2022-11-30T06:35:50.203Z,8.90
2022-11-30T06:41:21.291Z,8.75
2022-11-30T06:46:52.550Z,8.57
2022-11-30T06:52:23.765Z,8.90
2022-11-30T06:57:54.932Z,8.52
2022-11-30T07:03:26.020Z,8.95
2022-11-30T07:08:57.083Z,8.93
2022-11-30T07:14:29.073Z,8.57
2022-11-30T07:20:00.010Z,9.20
2022-11-30T07:25:49.958Z,9.35
2022-11-30T07:31:22.486Z,8.90
2022-11-30T07:36:53.841Z,8.52
2022-11-30T07:42:25.206Z,8.77
2022-11-30T07:47:59.322Z,9.45
2022-11-30T07:53:31.464Z,9.87
2022-11-30T07:59:03.455Z,9.25
2022-11-30T08:04:34.558Z,9.80
2022-11-30T08:10:06.984Z,9.38
2022-11-30T08:15:38.416Z,9.50
2022-11-30T08:21:12.736Z,10.30
2022-11-30T08:26:44.590Z,9.73
2022-11-30T08:32:15.703Z,10.48
2022-11-30T08:37:46.909Z,10.15
2022-11-30T08:43:18.286Z,9.55
2022-11-30T08:48:50.697Z,9.13
2022-11-30T08:54:21.613Z,8.90
2022-11-30T08:59:52.647Z,9.95
2022-11-30T09:05:23.682Z,10.05
2022-11-30T09:10:55.094Z,10.10
2022-11-30T09:16:26.481Z,9.60
2022-11-30T09:21:57.472Z,10.45
2022-11-30T09:27:32.300Z,10.75
2022-11-30T09:33:04.704Z,10.52
2022-11-30T09:38:35.913Z,9.85
2022-11-30T09:44:21.932Z,9.43
2022-11-30T09:49:53.006Z,10.07
2022-11-30T09:55:42.658Z,10.98
2022-11-30T10:01:19.193Z,10.65
2022-11-30T10:06:53.433Z,10.40
2022-11-30T10:12:52.773Z,10.02
2022-11-30T10:19:05.903Z,10.27
2022-11-30T10:24:53.102Z,11.02
2022-11-30T10:30:26.164Z,10.63
2022-11-30T10:36:03.734Z,10.23
2022-11-30T10:41:43.996Z,10.70
2022-11-30T10:47:20.578Z,10.90
2022-11-30T10:52:52.568Z,10.45
2022-11-30T10:58:31.002Z,10.10
2022-11-30T11:04:18.054Z,10.70
2022-11-30T11:09:50.679Z,10.80
2022-11-30T11:15:25.557Z,11.02
2022-11-30T11:21:16.892Z,10.73
2022-11-30T11:26:51.946Z,9.98
2022-11-30T11:32:26.908Z,10.52
2022-11-30T11:37:58.157Z,10.10
2022-11-30T11:43:34.379Z,10.60
2022-11-30T11:49:10.162Z,9.88
2022-11-30T11:54:50.679Z,10.55
2022-11-30T12:00:25.208Z,10.85
2022-11-30T12:06:04.358Z,11.00
2022-11-30T12:11:47.701Z,10.73
2022-11-30T12:17:40.302Z,10.73
2022-11-30T12:23:17.079Z,10.90
2022-11-30T12:29:15.501Z,10.95
2022-11-30T12:34:55.547Z,11.63
2022-11-30T12:40:49.579Z,11.35
2022-11-30T12:46:39.361Z,10.77
2022-11-30T12:52:36.009Z,11.38
2022-11-30T12:58:12.821Z,11.10
2022-11-30T13:03:55.681Z,10.80
2022-11-30T13:09:32.096Z,11.25
2022-11-30T13:15:21.432Z,10.48
2022-11-30T13:21:03.247Z,11.50
2022-11-30T13:26:51.723Z,10.90
2022-11-30T13:32:56.259Z,10.80
2022-11-30T13:44:36.220Z,11.45
2022-11-30T13:50:21.313Z,10.20
2022-11-30T13:55:59.797Z,10.90
2022-11-30T14:01:31.826Z,10.85
2022-11-30T14:07:02.863Z,10.38
2022-11-30T14:12:34.807Z,11.30
2022-11-30T14:18:22.226Z,11.32
2022-11-30T14:24:24.035Z,11.60
2022-11-30T14:30:01.699Z,10.93
2022-11-30T14:35:33.613Z,10.52
2022-11-30T14:41:04.666Z,11.38
2022-11-30T14:46:36.178Z,10.82
2022-11-30T14:52:07.301Z,11.50
2022-11-30T14:57:47.374Z,11.25
2022-11-30T15:03:26.711Z,11.63
2022-11-30T15:08:59.624Z,11.55
2022-11-30T15:14:32.314Z,11.27
2022-11-30T15:20:04.243Z,10.65
2022-11-30T15:25:45.170Z,10.23
2022-11-30T15:31:17.161Z,11.77
2022-11-30T15:36:48.383Z,11.10
2022-11-30T15:42:24.385Z,11.40
2022-11-30T15:47:56.911Z,10.48
2022-11-30T15:53:54.130Z,10.48
2022-11-30T15:59:29.110Z,11.68
2022-11-30T16:05:14.538Z,11.15
2022-11-30T16:10:46.209Z,11.10
2022-11-30T16:16:24.121Z,11.15
2022-11-30T16:21:55.462Z,10.73
2022-11-30T16:27:26.745Z,10.70
2022-11-30T16:32:58.064Z,12.13
2022-11-30T16:38:29.479Z,10.93
2022-11-30T16:44:00.851Z,11.20
2022-11-30T16:49:32.189Z,10.90
2022-11-30T16:55:03.134Z,11.00
2022-11-30T17:00:34.699Z,11.38
2022-11-30T17:06:09.054Z,11.77
2022-11-30T17:11:41.454Z,10.85
2022-11-30T17:17:12.415Z,11.60
2022-11-30T17:22:44.180Z,10.35
2022-11-30T17:28:15.316Z,10.90
2022-11-30T17:33:48.509Z,10.73
2022-11-30T17:39:20.290Z,11.63
2022-11-30T17:44:51.523Z,10.30
2022-11-30T17:50:22.729Z,10.80
2022-11-30T17:56:11.909Z,11.98
2022-11-30T18:01:43.085Z,11.52
2022-11-30T18:07:15.490Z,10.93
2022-11-30T18:12:46.576Z,11.27
2022-11-30T18:18:17.645Z,11.38
2022-11-30T18:23:49.453Z,11.82
2022-11-30T18:29:20.844Z,11.35
2022-11-30T18:34:51.964Z,12.13
2022-11-30T18:40:23.149Z,11.43
2022-11-30T18:45:54.340Z,10.73
2022-11-30T18:51:28.005Z,11.73
2022-11-30T18:56:59.357Z,11.07
2022-11-30T19:02:30.650Z,11.75
2022-11-30T19:08:05.089Z,11.35
2022-11-30T19:13:36.773Z,12.23
2022-11-30T19:19:10.667Z,11.73
2022-11-30T19:24:41.994Z,11.63
2022-11-30T19:30:13.814Z,12.18
2022-11-30T19:35:45.051Z,12.43
2022-11-30T19:41:16.225Z,11.82
2022-11-30T19:46:47.301Z,12.80
2022-11-30T19:52:20.770Z,12.48
2022-11-30T19:57:51.856Z,12.57
2022-11-30T20:03:23.018Z,12.73
2022-11-30T20:08:55.798Z,13.30
2022-11-30T20:14:27.131Z,13.30
2022-11-30T20:19:58.490Z,13.10
2022-11-30T20:25:31.338Z,13.00
2022-11-30T20:31:02.849Z,12.60
2022-11-30T20:36:35.031Z,12.98
2022-11-30T20:42:06.077Z,13.80
2022-11-30T20:47:37.173Z,13.15
2022-11-30T20:53:08.422Z,13.60
2022-11-30T20:58:39.536Z,12.93
2022-11-30T21:04:11.684Z,13.23
2022-11-30T21:09:43.651Z,12.20
2022-11-30T21:15:14.843Z,14.00
2022-11-30T21:20:46.263Z,13.77
2022-11-30T21:26:25.690Z,13.73
2022-11-30T21:31:56.883Z,13.80
2022-11-30T21:37:28.254Z,13.80
2022-11-30T21:42:59.299Z,12.98
2022-11-30T21:48:32.746Z,14.45
2022-11-30T21:54:06.810Z,14.02
2022-11-30T21:59:38.161Z,13.38
2022-11-30T22:05:09.400Z,13.45
2022-11-30T22:10:40.311Z,13.65
2022-11-30T22:16:15.496Z,13.32
2022-11-30T22:21:50.103Z,14.63
2022-11-30T22:27:21.493Z,14.88
2022-11-30T22:32:52.639Z,13.50
2022-11-30T22:38:23.690Z,13.85
2022-11-30T22:43:55.820Z,13.90
2022-11-30T22:49:26.958Z,13.77
2022-11-30T22:54:58.292Z,13.43
2022-11-30T23:00:30.026Z,14.25
2022-11-30T23:06:01.190Z,13.95
2022-11-30T23:11:32.579Z,12.70
2022-11-30T23:17:03.746Z,14.15
2022-11-30T23:22:37.380Z,14.32
2022-11-30T23:28:08.387Z,14.13
2022-11-30T23:33:40.887Z,14.10
2022-11-30T23:39:15.165Z,14.90
2022-11-30T23:44:46.399Z,15.30
2022-11-30T23:50:17.697Z,14.18
2022-11-30T23:55:49.048Z,14.07
